Terminal Aerodrome Forecast
Issued by NWS

Current Version | Previous Version | Graphics & Text | Print | Product List | Glossary On
Versions: 1 2 3 4 5 6 7 8 9 10 11 12 13 14 15 16 17 18 19 20 21 22 23 24 25 26
000
FTUS41 KRLX 271100
TAFCKB
TAF
KCKB 271127Z 2712/2812 19004KT P6SM SCT030 BKN100
     FM271500 22008KT P6SM VCTS BKN050CB
     FM271800 24010G20KT 4SM +TSRA BKN040CB
     FM272300 25010G16KT P6SM -SHRA BKN040
     FM280300 28008KT P6SM BKN035
     FM280700 28006KT P6SM BKN025=

USA.gov is the U.S. government's official web portal to all federal, state and local government web resources and services.